sensor_id;sensor_type;location;lat;lon;timestamp;P1;durP1;ratioP1;P2;durP2;ratioP2
17866;SDS011;9059;49.934;8.650;2023-11-18T00:09:38;10.47;;;3.13;;
17866;SDS011;9059;49.934;8.650;2023-11-18T00:19:41;5.60;;;2.67;;
17866;SDS011;9059;49.934;8.650;2023-11-18T00:29:47;7.53;;;3.13;;
17866;SDS011;9059;49.934;8.650;2023-11-18T00:39:50;10.10;;;2.83;;
17866;SDS011;9059;49.934;8.650;2023-11-18T00:49:54;3.63;;;2.07;;
17866;SDS011;9059;49.934;8.650;2023-11-18T00:59:59;5.43;;;2.30;;
17866;SDS011;9059;49.934;8.650;2023-11-18T01:10:03;6.30;;;2.53;;
17866;SDS011;9059;49.934;8.650;2023-11-18T01:20:08;6.47;;;2.60;;
17866;SDS011;9059;49.934;8.650;2023-11-18T01:30:14;8.20;;;3.40;;
17866;SDS011;9059;49.934;8.650;2023-11-18T01:40:17;5.70;;;2.40;;
17866;SDS011;9059;49.934;8.650;2023-11-18T01:50:22;5.43;;;2.33;;
17866;SDS011;9059;49.934;8.650;2023-11-18T02:00:27;5.83;;;2.50;;
17866;SDS011;9059;49.934;8.650;2023-11-18T02:10:33;5.23;;;2.40;;
17866;SDS011;9059;49.934;8.650;2023-11-18T02:20:39;3.97;;;1.93;;
17866;SDS011;9059;49.934;8.650;2023-11-18T02:30:47;4.67;;;2.20;;
17866;SDS011;9059;49.934;8.650;2023-11-18T02:40:53;5.33;;;2.30;;
17866;SDS011;9059;49.934;8.650;2023-11-18T02:51:05;7.53;;;2.47;;
17866;SDS011;9059;49.934;8.650;2023-11-18T03:01:15;4.80;;;2.13;;
17866;SDS011;9059;49.934;8.650;2023-11-18T03:11:22;7.40;;;3.27;;
17866;SDS011;9059;49.934;8.650;2023-11-18T03:21:25;6.03;;;3.00;;
17866;SDS011;9059;49.934;8.650;2023-11-18T03:31:30;6.53;;;3.00;;
17866;SDS011;9059;49.934;8.650;2023-11-18T03:41:33;5.60;;;2.37;;
17866;SDS011;9059;49.934;8.650;2023-11-18T03:51:37;4.47;;;2.23;;
17866;SDS011;9059;49.934;8.650;2023-11-18T04:01:39;4.87;;;1.90;;
17866;SDS011;9059;49.934;8.650;2023-11-18T04:11:44;4.87;;;2.40;;
17866;SDS011;9059;49.934;8.650;2023-11-18T04:21:47;8.80;;;2.63;;
17866;SDS011;9059;49.934;8.650;2023-11-18T04:31:52;5.90;;;2.30;;
17866;SDS011;9059;49.934;8.650;2023-11-18T04:41:56;5.40;;;2.57;;
17866;SDS011;9059;49.934;8.650;2023-11-18T04:52:02;5.13;;;2.33;;
17866;SDS011;9059;49.934;8.650;2023-11-18T05:02:05;13.67;;;3.73;;
17866;SDS011;9059;49.934;8.650;2023-11-18T05:12:09;7.63;;;3.30;;
17866;SDS011;9059;49.934;8.650;2023-11-18T05:22:13;6.97;;;2.83;;
17866;SDS011;9059;49.934;8.650;2023-11-18T05:32:18;7.03;;;2.83;;
17866;SDS011;9059;49.934;8.650;2023-11-18T05:42:21;16.67;;;3.07;;
17866;SDS011;9059;49.934;8.650;2023-11-18T05:52:26;18.83;;;4.07;;
17866;SDS011;9059;49.934;8.650;2023-11-18T06:02:28;7.03;;;2.57;;
17866;SDS011;9059;49.934;8.650;2023-11-18T06:12:33;6.00;;;2.70;;
17866;SDS011;9059;49.934;8.650;2023-11-18T06:22:38;10.50;;;2.83;;
17866;SDS011;9059;49.934;8.650;2023-11-18T06:32:42;7.03;;;2.97;;
17866;SDS011;9059;49.934;8.650;2023-11-18T06:42:45;7.63;;;2.97;;
17866;SDS011;9059;49.934;8.650;2023-11-18T06:52:50;8.10;;;2.93;;
17866;SDS011;9059;49.934;8.650;2023-11-18T07:02:53;11.03;;;3.13;;
17866;SDS011;9059;49.934;8.650;2023-11-18T07:12:57;5.60;;;2.40;;
17866;SDS011;9059;49.934;8.650;2023-11-18T07:23:01;8.53;;;2.50;;
17866;SDS011;9059;49.934;8.650;2023-11-18T07:33:05;4.73;;;2.07;;
17866;SDS011;9059;49.934;8.650;2023-11-18T07:43:10;6.23;;;2.90;;
17866;SDS011;9059;49.934;8.650;2023-11-18T07:53:14;8.83;;;3.40;;
17866;SDS011;9059;49.934;8.650;2023-11-18T08:03:17;10.27;;;2.73;;
17866;SDS011;9059;49.934;8.650;2023-11-18T08:13:23;6.37;;;2.83;;
17866;SDS011;9059;49.934;8.650;2023-11-18T08:23:26;7.50;;;2.87;;
17866;SDS011;9059;49.934;8.650;2023-11-18T08:33:30;7.23;;;2.73;;
17866;SDS011;9059;49.934;8.650;2023-11-18T08:43:34;5.17;;;2.23;;
17866;SDS011;9059;49.934;8.650;2023-11-18T08:53:38;7.73;;;2.87;;
17866;SDS011;9059;49.934;8.650;2023-11-18T09:03:43;6.47;;;3.22;;
17866;SDS011;9059;49.934;8.650;2023-11-18T09:13:52;20.38;;;5.97;;
17866;SDS011;9059;49.934;8.650;2023-11-18T09:23:56;10.00;;;4.32;;
17866;SDS011;9059;49.934;8.650;2023-11-18T09:34:00;14.30;;;4.63;;
17866;SDS011;9059;49.934;8.650;2023-11-18T09:44:07;9.10;;;4.38;;
17866;SDS011;9059;49.934;8.650;2023-11-18T09:54:18;10.93;;;4.40;;
17866;SDS011;9059;49.934;8.650;2023-11-18T10:04:25;10.30;;;3.88;;
17866;SDS011;9059;49.934;8.650;2023-11-18T10:14:30;6.47;;;3.08;;
17866;SDS011;9059;49.934;8.650;2023-11-18T10:24:37;7.80;;;2.65;;
17866;SDS011;9059;49.934;8.650;2023-11-18T10:34:48;6.55;;;2.78;;
17866;SDS011;9059;49.934;8.650;2023-11-18T10:44:55;7.72;;;2.92;;
17866;SDS011;9059;49.934;8.650;2023-11-18T10:55:01;11.95;;;3.22;;
17866;SDS011;9059;49.934;8.650;2023-11-18T11:05:13;6.00;;;2.90;;
17866;SDS011;9059;49.934;8.650;2023-11-18T11:15:40;7.75;;;3.28;;
17866;SDS011;9059;49.934;8.650;2023-11-18T11:25:59;9.63;;;3.33;;
17866;SDS011;9059;49.934;8.650;2023-11-18T11:36:11;7.28;;;3.60;;
17866;SDS011;9059;49.934;8.650;2023-11-18T11:46:17;7.65;;;3.35;;
17866;SDS011;9059;49.934;8.650;2023-11-18T11:56:38;7.38;;;3.47;;
17866;SDS011;9059;49.934;8.650;2023-11-18T12:06:42;6.05;;;2.85;;
17866;SDS011;9059;49.934;8.650;2023-11-18T12:17:03;6.55;;;3.60;;
17866;SDS011;9059;49.934;8.650;2023-11-18T12:27:11;8.50;;;3.47;;
17866;SDS011;9059;49.934;8.650;2023-11-18T12:37:22;7.65;;;2.80;;
17866;SDS011;9059;49.934;8.650;2023-11-18T12:47:40;6.50;;;2.40;;
17866;SDS011;9059;49.934;8.650;2023-11-18T12:57:47;5.15;;;2.40;;
17866;SDS011;9059;49.934;8.650;2023-11-18T13:07:52;4.40;;;1.92;;
17866;SDS011;9059;49.934;8.650;2023-11-18T13:17:57;5.30;;;1.77;;
17866;SDS011;9059;49.934;8.650;2023-11-18T13:28:03;5.45;;;1.52;;
17866;SDS011;9059;49.934;8.650;2023-11-18T13:38:07;2.80;;;1.60;;
17866;SDS011;9059;49.934;8.650;2023-11-18T13:48:11;5.90;;;1.60;;
17866;SDS011;9059;49.934;8.650;2023-11-18T13:58:16;3.78;;;1.40;;
17866;SDS011;9059;49.934;8.650;2023-11-18T14:08:20;4.38;;;1.30;;
17866;SDS011;9059;49.934;8.650;2023-11-18T14:18:25;6.10;;;1.55;;
17866;SDS011;9059;49.934;8.650;2023-11-18T14:28:28;9.40;;;3.03;;
17866;SDS011;9059;49.934;8.650;2023-11-18T14:38:33;4.88;;;1.70;;
17866;SDS011;9059;49.934;8.650;2023-11-18T14:48:38;8.88;;;2.17;;
17866;SDS011;9059;49.934;8.650;2023-11-18T14:58:42;4.05;;;1.55;;
17866;SDS011;9059;49.934;8.650;2023-11-18T15:08:46;5.63;;;1.20;;
17866;SDS011;9059;49.934;8.650;2023-11-18T15:18:50;4.60;;;1.42;;
17866;SDS011;9059;49.934;8.650;2023-11-18T15:28:54;2.70;;;1.10;;
17866;SDS011;9059;49.934;8.650;2023-11-18T15:38:59;4.85;;;1.20;;
17866;SDS011;9059;49.934;8.650;2023-11-18T15:49:04;9.68;;;1.80;;
17866;SDS011;9059;49.934;8.650;2023-11-18T15:59:09;5.88;;;1.60;;
17866;SDS011;9059;49.934;8.650;2023-11-18T16:09:12;1.92;;;0.90;;
17866;SDS011;9059;49.934;8.650;2023-11-18T16:19:16;1.25;;;0.82;;
17866;SDS011;9059;49.934;8.650;2023-11-18T16:29:21;2.40;;;1.20;;
17866;SDS011;9059;49.934;8.650;2023-11-18T16:39:25;3.83;;;1.20;;
17866;SDS011;9059;49.934;8.650;2023-11-18T16:49:28;5.18;;;1.48;;
17866;SDS011;9059;49.934;8.650;2023-11-18T16:59:32;2.93;;;0.63;;
17866;SDS011;9059;49.934;8.650;2023-11-18T17:09:36;4.07;;;1.13;;
17866;SDS011;9059;49.934;8.650;2023-11-18T17:19:40;5.60;;;1.10;;
17866;SDS011;9059;49.934;8.650;2023-11-18T17:29:43;3.93;;;0.80;;
17866;SDS011;9059;49.934;8.650;2023-11-18T17:39:47;3.17;;;1.00;;
17866;SDS011;9059;49.934;8.650;2023-11-18T17:49:50;2.55;;;1.13;;
17866;SDS011;9059;49.934;8.650;2023-11-18T17:59:54;2.28;;;0.90;;
17866;SDS011;9059;49.934;8.650;2023-11-18T18:09:58;3.00;;;0.80;;
17866;SDS011;9059;49.934;8.650;2023-11-18T18:20:04;3.10;;;1.70;;
17866;SDS011;9059;49.934;8.650;2023-11-18T18:30:11;4.82;;;1.08;;
17866;SDS011;9059;49.934;8.650;2023-11-18T18:40:16;3.00;;;0.90;;
17866;SDS011;9059;49.934;8.650;2023-11-18T18:50:24;7.27;;;1.20;;
17866;SDS011;9059;49.934;8.650;2023-11-18T19:00:28;3.17;;;1.13;;
17866;SDS011;9059;49.934;8.650;2023-11-18T19:10:31;3.03;;;1.23;;
17866;SDS011;9059;49.934;8.650;2023-11-18T19:20:36;3.13;;;0.85;;
17866;SDS011;9059;49.934;8.650;2023-11-18T19:30:39;1.60;;;0.80;;
17866;SDS011;9059;49.934;8.650;2023-11-18T19:40:43;2.87;;;0.90;;
17866;SDS011;9059;49.934;8.650;2023-11-18T19:50:46;5.05;;;1.60;;
17866;SDS011;9059;49.934;8.650;2023-11-18T20:00:51;0.95;;;0.80;;
17866;SDS011;9059;49.934;8.650;2023-11-18T20:10:54;2.63;;;1.10;;
17866;SDS011;9059;49.934;8.650;2023-11-18T20:20:58;2.35;;;1.08;;
17866;SDS011;9059;49.934;8.650;2023-11-18T20:31:01;4.78;;;1.30;;
17866;SDS011;9059;49.934;8.650;2023-11-18T20:41:05;4.53;;;1.17;;
17866;SDS011;9059;49.934;8.650;2023-11-18T20:51:09;2.60;;;1.38;;
17866;SDS011;9059;49.934;8.650;2023-11-18T21:01:13;4.47;;;1.80;;
17866;SDS011;9059;49.934;8.650;2023-11-18T21:11:17;6.07;;;2.00;;
17866;SDS011;9059;49.934;8.650;2023-11-18T21:21:22;4.38;;;1.67;;
17866;SDS011;9059;49.934;8.650;2023-11-18T21:31:24;3.72;;;1.30;;
17866;SDS011;9059;49.934;8.650;2023-11-18T21:41:29;6.83;;;1.60;;
17866;SDS011;9059;49.934;8.650;2023-11-18T21:51:34;4.75;;;1.73;;
17866;SDS011;9059;49.934;8.650;2023-11-18T22:01:38;3.95;;;1.48;;
17866;SDS011;9059;49.934;8.650;2023-11-18T22:11:41;5.23;;;2.17;;
17866;SDS011;9059;49.934;8.650;2023-11-18T22:21:46;6.03;;;1.67;;
17866;SDS011;9059;49.934;8.650;2023-11-18T22:31:50;4.10;;;1.67;;
17866;SDS011;9059;49.934;8.650;2023-11-18T22:41:54;2.90;;;1.50;;
17866;SDS011;9059;49.934;8.650;2023-11-18T22:51:59;2.63;;;1.27;;
17866;SDS011;9059;49.934;8.650;2023-11-18T23:02:04;3.80;;;1.60;;
17866;SDS011;9059;49.934;8.650;2023-11-18T23:12:07;2.55;;;1.10;;
17866;SDS011;9059;49.934;8.650;2023-11-18T23:22:12;3.03;;;1.33;;
17866;SDS011;9059;49.934;8.650;2023-11-18T23:32:15;2.45;;;1.15;;
17866;SDS011;9059;49.934;8.650;2023-11-18T23:42:19;4.68;;;1.60;;
17866;SDS011;9059;49.934;8.650;2023-11-18T23:52:23;1.75;;;1.15;;
